Time;durP1;ratioP1;P1;durP2;ratioP2;P2;SDS_P1;SDS_P2;PMS_P1;PMS_P2;Temp;Humidity;BMP_temperature;BMP_pressure;BME280_temperature;BME280_humidity;BME280_pressure;Samples;Min_cycle;Max_cycle;Signal;HPM_P1;HPM_P2
2022/11/08 00:01:57;;;;;;;11.63;2.70;;;12.90;99.90;;;;;;5018965;28;20059;-61
2022/11/08 00:04:23;;;;;;;10.93;2.90;;;12.90;99.90;;;;;;5021136;28;20033;-61
2022/11/08 00:15:04;;;;;;;12.75;3.42;;;12.80;99.90;;;;;;5027810;28;20045;-61
2022/11/08 00:17:30;;;;;;;11.48;2.42;;;12.70;99.90;;;;;;5028913;28;20086;-61
2022/11/08 00:19:56;;;;;;;10.05;2.80;;;12.70;99.90;;;;;;5027667;28;20128;-62
2022/11/08 00:22:23;;;;;;;10.80;2.75;;;12.60;99.90;;;;;;5030034;28;20036;-61
2022/11/08 00:24:50;;;;;;;8.93;2.67;;;12.60;99.90;;;;;;5029330;28;20116;-61
2022/11/08 00:27:21;;;;;;;11.07;2.90;;;12.50;99.90;;;;;;5030193;28;20133;-61
2022/11/08 00:29:47;;;;;;;13.77;3.28;;;12.50;99.90;;;;;;5024823;28;20510;-62
2022/11/08 00:32:24;;;;;;;7.68;2.95;;;12.50;99.90;;;;;;5029795;28;20041;-61
2022/11/08 00:34:51;;;;;;;9.27;2.70;;;12.40;99.90;;;;;;5030105;28;20052;-61
2022/11/08 00:37:18;;;;;;;9.32;2.67;;;12.40;99.90;;;;;;5029841;28;20041;-61
2022/11/08 00:39:44;;;;;;;8.63;3.22;;;12.40;99.90;;;;;;5030538;28;20076;-60
2022/11/08 00:42:10;;;;;;;8.65;2.50;;;12.30;99.90;;;;;;5027096;28;20175;-61
2022/11/08 00:44:35;;;;;;;7.53;2.53;;;12.30;99.90;;;;;;5028565;28;20044;-61
2022/11/08 00:47:01;;;;;;;9.27;3.10;;;12.30;99.90;;;;;;5029214;28;20052;-61
2022/11/08 00:49:27;;;;;;;12.63;3.20;;;12.40;99.90;;;;;;5028743;28;20124;-61
2022/11/08 00:51:53;;;;;;;10.27;2.85;;;12.30;99.90;;;;;;5029902;28;20140;-61
2022/11/08 00:54:20;;;;;;;9.45;2.53;;;12.30;99.90;;;;;;5028889;28;20042;-61
2022/11/08 00:56:47;;;;;;;10.73;3.20;;;12.30;99.90;;;;;;5025613;28;20048;-61
2022/11/08 00:59:13;;;;;;;12.05;3.03;;;12.30;99.90;;;;;;5026499;28;20045;-61
2022/11/08 01:01:41;;;;;;;10.98;3.00;;;12.20;99.90;;;;;;4770506;22;21001;-61
2022/11/08 01:04:08;;;;;;;11.77;3.47;;;12.20;99.90;;;;;;5087385;28;20511;-62
2022/11/08 01:06:34;;;;;;;8.95;2.80;;;12.20;99.90;;;;;;5092535;28;20117;-61
2022/11/08 01:09:00;;;;;;;12.40;3.17;;;12.10;99.90;;;;;;5079196;28;20502;-61
2022/11/08 01:11:26;;;;;;;13.70;2.95;;;12.10;99.90;;;;;;5088455;28;20443;-61
2022/11/08 01:13:55;;;;;;;10.57;3.38;;;12.00;99.90;;;;;;5067094;28;20056;-61
2022/11/08 01:16:24;;;;;;;12.80;3.00;;;12.00;99.90;;;;;;5087852;28;20051;-61
2022/11/08 01:18:51;;;;;;;7.75;2.70;;;12.00;99.90;;;;;;5086575;28;20436;-61
2022/11/08 01:21:18;;;;;;;10.02;2.58;;;12.00;99.90;;;;;;5089889;28;20051;-60
2022/11/08 01:23:44;;;;;;;9.63;2.50;;;11.90;99.90;;;;;;5085302;28;20036;-61
2022/11/08 01:26:13;;;;;;;11.27;3.38;;;11.90;99.90;;;;;;5085266;28;20044;-61
2022/11/08 01:28:39;;;;;;;10.50;2.55;;;11.90;99.90;;;;;;5088880;28;20040;-61
2022/11/08 01:31:07;;;;;;;10.02;2.88;;;11.90;99.90;;;;;;5066070;28;20450;-61
2022/11/08 01:33:33;;;;;;;9.07;2.70;;;11.90;99.90;;;;;;5065916;28;20073;-60
2022/11/08 01:35:59;;;;;;;9.20;3.00;;;11.80;99.90;;;;;;5087430;28;20040;-61
2022/11/08 01:38:25;;;;;;;14.80;3.40;;;11.80;99.90;;;;;;5090376;28;20032;-60
2022/11/08 01:40:51;;;;;;;10.88;3.08;;;11.80;99.90;;;;;;5087182;28;20064;-60
2022/11/08 01:43:29;;;;;;;12.05;3.47;;;11.90;99.90;;;;;;5085754;28;20138;-60
2022/11/08 01:46:17;;;;;;;11.70;2.72;;;11.90;99.90;;;;;;5086412;28;20063;-62
2022/11/08 01:48:54;;;;;;;10.50;2.90;;;11.90;99.90;;;;;;5058216;28;20605;-61
2022/11/08 01:51:25;;;;;;;6.82;3.00;;;12.00;99.90;;;;;;5062700;28;20046;-61
2022/11/08 01:53:51;;;;;;;9.52;2.88;;;12.10;99.90;;;;;;5062539;28;20076;-62
2022/11/08 01:56:18;;;;;;;12.98;3.13;;;12.00;99.90;;;;;;5071604;28;20449;-60
2022/11/08 01:58:45;;;;;;;10.77;2.75;;;12.10;99.90;;;;;;5063864;28;20152;-61
2022/11/08 02:01:11;;;;;;;9.52;2.70;;;12.10;99.90;;;;;;5064332;28;20036;-60
2022/11/08 02:03:39;;;;;;;8.25;2.70;;;12.10;99.90;;;;;;5067441;28;20052;-60
2022/11/08 02:06:06;;;;;;;8.88;2.65;;;12.10;99.90;;;;;;5064262;28;20040;-60
2022/11/08 02:08:43;;;;;;;14.55;3.10;;;12.10;99.90;;;;;;5067118;28;20419;-60
2022/11/08 02:11:12;;;;;;;10.23;3.50;;;12.10;99.90;;;;;;5067142;28;20043;-60
2022/11/08 02:13:39;;;;;;;12.07;3.13;;;12.00;99.90;;;;;;5063918;28;20445;-61
2022/11/08 02:16:13;;;;;;;6.43;2.72;;;12.00;99.90;;;;;;5061978;28;20051;-60
2022/11/08 02:18:40;;;;;;;9.82;2.80;;;11.90;99.90;;;;;;5051436;28;20093;-60
2022/11/08 02:21:31;;;;;;;8.57;2.65;;;11.80;99.90;;;;;;5068907;28;20047;-61
2022/11/08 02:24:00;;;;;;;9.02;2.80;;;11.70;99.90;;;;;;5063267;28;20511;-61
2022/11/08 02:26:32;;;;;;;7.70;2.50;;;11.70;99.90;;;;;;5066302;28;20114;-60
2022/11/08 02:28:58;;;;;;;9.85;3.05;;;;;;;;;;5049716;28;20085;-60
2022/11/08 02:31:23;;;;;;;9.02;3.35;;;11.60;99.90;;;;;;5063175;28;20037;-60
2022/11/08 02:33:50;;;;;;;9.68;2.65;;;11.50;99.90;;;;;;5058791;28;20047;-61
2022/11/08 02:36:23;;;;;;;12.00;3.47;;;11.50;99.90;;;;;;5064598;28;20417;-61
2022/11/08 02:38:56;;;;;;;9.75;3.30;;;11.50;99.90;;;;;;5047284;28;20044;-60
2022/11/08 02:41:22;;;;;;;10.80;3.28;;;11.50;99.90;;;;;;5063298;28;20097;-60
2022/11/08 02:43:48;;;;;;;8.88;2.92;;;11.40;99.90;;;;;;5063794;28;20397;-60
2022/11/08 02:46:13;;;;;;;8.27;2.90;;;11.50;99.90;;;;;;5058797;28;20043;-59
2022/11/08 02:48:39;;;;;;;9.18;3.50;;;11.50;99.90;;;;;;5064242;28;20111;-60
2022/11/08 02:51:05;;;;;;;6.47;2.50;;;11.40;99.90;;;;;;5068521;28;20497;-60
2022/11/08 02:53:30;;;;;;;8.55;2.80;;;11.40;99.90;;;;;;5061586;28;20059;-59
2022/11/08 02:55:56;;;;;;;10.90;2.90;;;11.40;99.90;;;;;;5066761;28;20082;-59
2022/11/08 02:58:22;;;;;;;9.20;2.80;;;11.50;99.90;;;;;;5068639;28;20132;-59
2022/11/08 03:00:48;;;;;;;14.45;3.08;;;11.60;99.90;;;;;;5066411;28;20536;-60
2022/11/08 03:03:13;;;;;;;7.75;2.55;;;11.50;99.90;;;;;;5063210;28;20098;-60
2022/11/08 03:05:39;;;;;;;5.53;2.30;;;11.50;99.90;;;;;;5064060;28;20037;-60
2022/11/08 03:08:05;;;;;;;9.05;2.92;;;11.50;99.90;;;;;;5050321;28;20049;-61
2022/11/08 03:10:30;;;;;;;7.45;3.00;;;11.50;99.90;;;;;;5066212;28;20402;-60
2022/11/08 03:12:57;;;;;;;10.90;3.03;;;11.50;99.90;;;;;;5069487;28;20102;-60
2022/11/08 03:15:23;;;;;;;4.82;2.40;;;11.40;99.90;;;;;;5050961;28;20056;-60
2022/11/08 03:17:49;;;;;;;9.57;2.80;;;11.40;99.90;;;;;;5068181;28;20091;-59
2022/11/08 03:20:14;;;;;;;9.45;3.28;;;11.40;99.90;;;;;;5067856;28;20413;-59
2022/11/08 03:22:40;;;;;;;7.13;2.63;;;11.30;99.90;;;;;;5064867;28;20390;-60
2022/11/08 03:25:06;;;;;;;11.38;3.28;;;11.30;99.90;;;;;;5061191;28;20490;-60
2022/11/08 03:27:31;;;;;;;8.63;2.80;;;11.30;99.90;;;;;;5063691;28;20351;-59
2022/11/08 03:29:57;;;;;;;6.95;3.33;;;11.30;99.90;;;;;;5055013;28;20301;-60
2022/11/08 03:32:23;;;;;;;8.57;2.60;;;11.30;99.90;;;;;;5059079;28;20537;-60
2022/11/08 03:34:48;;;;;;;8.07;2.65;;;11.40;99.90;;;;;;5060684;28;20044;-60
2022/11/08 03:37:24;;;;;;;6.55;2.83;;;11.40;99.90;;;;;;5081052;22;20444;-60
2022/11/08 03:39:49;;;;;;;9.40;2.85;;;11.40;99.90;;;;;;5056666;28;20128;-60
2022/11/08 03:42:15;;;;;;;10.02;2.72;;;11.40;99.90;;;;;;5065531;28;20171;-59
2022/11/08 03:44:41;;;;;;;10.50;2.63;;;11.50;99.90;;;;;;5069945;28;20045;-59
2022/11/08 03:47:07;;;;;;;8.55;2.42;;;11.50;99.90;;;;;;5068640;28;20040;-59
2022/11/08 03:49:33;;;;;;;6.00;2.42;;;11.40;99.90;;;;;;5061338;28;20040;-59
2022/11/08 03:51:58;;;;;;;9.63;3.03;;;11.40;99.90;;;;;;5064504;28;20504;-59
2022/11/08 03:54:24;;;;;;;6.90;2.45;;;11.50;99.90;;;;;;5066924;28;20037;-60
2022/11/08 03:56:50;;;;;;;6.65;2.42;;;11.50;99.90;;;;;;5067572;28;20472;-59
2022/11/08 03:59:15;;;;;;;9.48;2.53;;;11.40;99.90;;;;;;5064068;28;20040;-60
2022/11/08 04:01:41;;;;;;;6.68;2.40;;;11.40;99.90;;;;;;5053637;28;20036;-60
2022/11/08 04:04:07;;;;;;;8.20;2.67;;;11.30;99.90;;;;;;5046060;28;20037;-59
2022/11/08 04:06:32;;;;;;;9.05;2.92;;;11.40;99.90;;;;;;5057892;28;20156;-60
2022/11/08 04:08:58;;;;;;;11.52;2.67;;;11.40;99.90;;;;;;5065602;28;20438;-60
2022/11/08 04:16:53;;;;;;;9.38;2.97;;;11.30;99.90;;;;;;5060502;28;20103;-61
2022/11/08 04:22:03;;;;;;;10.75;3.03;;;11.20;99.90;;;;;;5061910;28;20045;-60
2022/11/08 04:24:29;;;;;;;7.85;3.00;;;11.20;99.90;;;;;;5051716;28;20451;-60
2022/11/08 04:26:54;;;;;;;8.90;2.47;;;11.20;99.90;;;;;;5053788;28;20048;-61
2022/11/08 04:29:20;;;;;;;7.72;2.40;;;11.20;99.90;;;;;;5070413;28;20060;-59
2022/11/08 04:31:46;;;;;;;8.10;2.45;;;11.20;99.90;;;;;;5065381;28;20032;-60
2022/11/08 04:34:11;;;;;;;7.15;2.38;;;11.20;99.90;;;;;;5072590;28;20040;-60
2022/11/08 04:36:37;;;;;;;8.60;2.38;;;11.10;99.90;;;;;;5059741;28;20048;-60
2022/11/08 04:39:03;;;;;;;8.50;2.53;;;11.10;99.90;;;;;;5086587;22;20471;-59
2022/11/08 04:41:28;;;;;;;6.00;2.40;;;11.20;99.90;;;;;;5045992;28;20052;-59
2022/11/08 04:43:55;;;;;;;6.95;2.20;;;11.20;99.90;;;;;;5050076;28;20037;-59
2022/11/08 04:46:23;;;;;;;5.65;2.22;;;11.10;99.90;;;;;;5049659;28;20049;-59
2022/11/08 04:48:51;;;;;;;8.25;2.55;;;11.20;99.90;;;;;;5029814;28;20038;-60
2022/11/08 04:51:19;;;;;;;8.65;2.63;;;11.20;99.90;;;;;;5030945;28;20045;-60
2022/11/08 04:53:44;;;;;;;;;;;11.20;99.90;;;;;;5030276;28;20056;-60
2022/11/08 04:56:13;;;;;;;6.32;2.03;;;11.10;99.90;;;;;;5034076;28;20232;-61
2022/11/08 04:58:44;;;;;;;8.65;2.40;;;11.10;99.90;;;;;;5028247;28;20034;-60
2022/11/08 05:01:14;;;;;;;7.65;2.20;;;11.10;99.90;;;;;;5030057;28;20368;-59
2022/11/08 05:03:40;;;;;;;9.23;2.50;;;11.10;99.90;;;;;;5031314;28;20064;-60
2022/11/08 05:06:09;;;;;;;7.15;2.33;;;11.10;99.90;;;;;;5032572;28;20049;-60
2022/11/08 05:08:35;;;;;;;5.15;2.10;;;11.10;99.90;;;;;;5032593;28;20052;-61
2022/11/08 05:11:04;;;;;;;7.45;2.22;;;11.10;99.90;;;;;;5016376;28;20034;-60
2022/11/08 05:13:30;;;;;;;4.82;2.28;;;11.10;99.90;;;;;;5033211;28;20052;-61
2022/11/08 05:16:00;;;;;;;5.95;2.45;;;11.10;99.90;;;;;;5015009;28;20045;-60
2022/11/08 05:18:26;;;;;;;8.90;2.05;;;11.00;99.90;;;;;;5026995;28;20490;-60
2022/11/08 05:23:41;;;;;;;5.63;2.22;;;11.00;99.90;;;;;;5028610;28;20057;-60
2022/11/08 05:26:07;;;;;;;7.53;2.38;;;11.00;99.90;;;;;;5032035;28;20406;-62
2022/11/08 05:28:33;;;;;;;8.73;2.70;;;11.00;99.90;;;;;;5026886;28;20124;-61
2022/11/08 05:30:58;;;;;;;6.22;2.33;;;11.00;99.90;;;;;;5025951;28;20200;-60
2022/11/08 05:33:25;;;;;;;9.40;2.85;;;11.00;99.90;;;;;;5029041;28;20071;-60
2022/11/08 05:35:51;;;;;;;8.88;3.00;;;11.00;99.90;;;;;;5032042;28;20120;-60
2022/11/08 05:38:17;;;;;;;7.68;2.80;;;10.90;99.90;;;;;;5011765;28;20645;-60
2022/11/08 05:40:43;;;;;;;8.98;2.47;;;10.90;99.90;;;;;;5030615;28;20457;-61
2022/11/08 05:43:09;;;;;;;11.02;3.20;;;10.90;99.90;;;;;;5025943;28;20054;-61
2022/11/08 05:45:35;;;;;;;8.98;2.78;;;10.90;99.90;;;;;;5005241;28;20053;-61
2022/11/08 05:48:03;;;;;;;6.90;2.92;;;10.90;99.90;;;;;;5027200;28;20041;-61
2022/11/08 05:50:31;;;;;;;9.80;2.80;;;10.90;99.90;;;;;;5030036;28;20398;-60
2022/11/08 05:52:56;;;;;;;8.17;2.63;;;10.90;99.90;;;;;;5012501;28;20041;-60
2022/11/08 05:55:22;;;;;;;7.55;2.90;;;10.80;99.90;;;;;;5030116;28;20304;-61
2022/11/08 05:57:48;;;;;;;8.05;2.72;;;10.90;99.90;;;;;;5031476;28;20038;-61
2022/11/08 06:00:13;;;;;;;7.22;2.67;;;10.90;99.90;;;;;;5030484;28;20043;-61
2022/11/08 06:02:39;;;;;;;8.85;3.30;;;10.90;99.90;;;;;;5027928;28;20045;-61
2022/11/08 06:05:06;;;;;;;11.50;2.78;;;10.80;99.90;;;;;;5028332;28;20435;-61
2022/11/08 06:07:32;;;;;;;7.50;2.90;;;10.80;99.90;;;;;;5029663;28;20029;-61
2022/11/08 06:09:57;;;;;;;8.27;2.78;;;10.80;99.90;;;;;;5030406;28;20056;-61
2022/11/08 06:12:23;;;;;;;7.22;2.70;;;10.80;99.90;;;;;;5033559;28;20037;-61
2022/11/08 06:14:49;;;;;;;9.70;3.20;;;10.80;99.90;;;;;;5030552;28;20091;-61
2022/11/08 06:17:14;;;;;;;7.22;2.78;;;10.80;99.90;;;;;;5029320;28;20071;-60
2022/11/08 06:19:40;;;;;;;8.68;3.03;;;10.70;99.90;;;;;;5026583;28;20052;-61
2022/11/08 06:22:05;;;;;;;5.70;2.60;;;10.80;99.90;;;;;;5030724;28;20478;-61
2022/11/08 06:24:31;;;;;;;13.13;3.05;;;10.70;99.90;;;;;;5027625;28;20046;-60
2022/11/08 06:26:56;;;;;;;8.27;2.50;;;10.70;99.90;;;;;;5031751;28;20049;-59
2022/11/08 06:29:22;;;;;;;8.70;2.72;;;10.70;99.90;;;;;;5026671;28;20541;-59
2022/11/08 06:31:48;;;;;;;8.10;2.45;;;10.70;99.90;;;;;;5029474;28;20029;-60
2022/11/08 06:34:13;;;;;;;6.25;2.60;;;10.70;99.90;;;;;;5013082;28;20399;-60
2022/11/08 06:36:39;;;;;;;7.60;2.47;;;10.70;99.90;;;;;;5029987;28;20120;-60
2022/11/08 06:39:05;;;;;;;7.25;2.40;;;10.70;99.90;;;;;;5028444;28;20133;-60
2022/11/08 06:41:32;;;;;;;6.10;2.50;;;10.70;99.90;;;;;;5022379;28;20141;-62
2022/11/08 06:43:58;;;;;;;9.95;2.95;;;10.70;99.90;;;;;;5029855;28;20491;-60
2022/11/08 06:46:23;;;;;;;8.55;2.22;;;10.70;99.90;;;;;;5029400;28;20402;-61
2022/11/08 06:48:49;;;;;;;6.95;2.30;;;10.70;99.90;;;;;;5029236;28;20048;-60
2022/11/08 06:51:15;;;;;;;4.82;2.10;;;10.70;99.90;;;;;;5029010;28;20128;-61
2022/11/08 06:53:40;;;;;;;5.50;2.30;;;10.80;99.90;;;;;;5029790;28;20035;-61
2022/11/08 06:56:06;;;;;;;5.63;2.20;;;10.70;99.90;;;;;;5030437;28;20545;-61
2022/11/08 06:58:32;;;;;;;6.70;2.30;;;10.80;99.90;;;;;;5029906;28;20120;-61
2022/11/08 07:01:01;;;;;;;6.10;2.47;;;10.80;99.90;;;;;;5028359;28;20037;-61
2022/11/08 07:03:26;;;;;;;6.38;2.35;;;10.90;99.90;;;;;;5023597;28;20371;-60
2022/11/08 07:05:52;;;;;;;5.38;2.25;;;10.90;99.90;;;;;;5028444;28;20045;-61
2022/11/08 07:08:18;;;;;;;7.00;2.20;;;11.00;99.90;;;;;;5009866;28;20121;-61
2022/11/08 07:10:44;;;;;;;5.90;2.03;;;11.00;99.90;;;;;;5028365;28;20038;-61
2022/11/08 07:13:11;;;;;;;6.05;2.33;;;11.00;99.90;;;;;;5027063;28;20037;-62
2022/11/08 07:15:38;;;;;;;7.28;2.15;;;11.10;99.90;;;;;;5027071;28;21493;-62
2022/11/08 07:18:09;;;;;;;6.68;2.42;;;11.10;99.90;;;;;;5024103;28;20050;-62
2022/11/08 07:20:35;;;;;;;8.43;2.30;;;11.20;99.90;;;;;;5023652;28;20115;-62
2022/11/08 07:23:01;;;;;;;5.05;2.05;;;11.20;99.90;;;;;;5026821;28;20077;-60
2022/11/08 07:25:28;;;;;;;4.95;1.88;;;11.20;99.90;;;;;;5027107;28;21753;-60
2022/11/08 07:27:58;;;;;;;5.27;1.90;;;11.30;99.90;;;;;;5026554;28;20053;-60
2022/11/08 07:30:24;;;;;;;4.07;1.83;;;11.30;99.90;;;;;;5023056;28;20042;-59
2022/11/08 07:32:50;;;;;;;6.72;2.10;;;11.40;99.90;;;;;;5023150;28;20172;-59
2022/11/08 07:35:16;;;;;;;5.85;2.13;;;11.40;99.90;;;;;;5022758;28;20048;-60
2022/11/08 07:37:42;;;;;;;3.92;1.90;;;11.40;99.90;;;;;;5023582;28;20042;-58
2022/11/08 07:40:09;;;;;;;6.05;1.95;;;11.50;99.90;;;;;;5010596;28;20051;-60
2022/11/08 07:42:38;;;;;;;3.90;1.50;;;11.50;99.90;;;;;;5029394;28;20383;-61
2022/11/08 07:45:05;;;;;;;6.18;1.88;;;11.60;99.90;;;;;;5028833;28;20112;-61
2022/11/08 07:47:31;;;;;;;3.08;1.60;;;11.60;99.90;;;;;;5008153;28;20049;-60
2022/11/08 07:49:56;;;;;;;4.00;1.80;;;11.60;99.90;;;;;;5026677;28;20400;-60
2022/11/08 07:52:22;;;;;;;7.35;2.15;;;11.60;99.90;;;;;;5008546;28;20475;-60
2022/11/08 07:54:48;;;;;;;5.45;2.10;;;11.60;99.90;;;;;;5027091;28;20053;-61
2022/11/08 07:57:13;;;;;;;4.43;1.77;;;11.60;99.90;;;;;;5025754;28;20554;-60
2022/11/08 07:59:39;;;;;;;7.57;1.90;;;11.70;99.90;;;;;;5028420;28;20047;-60
2022/11/08 08:02:05;;;;;;;4.78;1.92;;;11.70;99.90;;;;;;5026783;28;20040;-60
2022/11/08 08:04:31;;;;;;;5.47;2.10;;;11.70;99.90;;;;;;5024230;28;20044;-61
2022/11/08 08:06:59;;;;;;;7.03;2.22;;;11.70;99.90;;;;;;5024831;28;20045;-59
2022/11/08 08:09:25;;;;;;;5.97;1.88;;;11.70;99.90;;;;;;5026177;28;20076;-61
2022/11/08 08:11:50;;;;;;;6.25;2.20;;;11.80;99.90;;;;;;5014708;28;20124;-61
2022/11/08 08:14:16;;;;;;;4.22;2.00;;;11.90;99.90;;;;;;5023643;28;20041;-61
2022/11/08 08:16:41;;;;;;;4.95;2.35;;;12.00;99.90;;;;;;5023391;28;20049;-61
2022/11/08 08:19:07;;;;;;;5.25;1.90;;;12.10;99.90;;;;;;5029047;28;20045;-61
2022/11/08 08:21:32;;;;;;;5.13;2.40;;;12.20;99.90;;;;;;5027371;28;20127;-61
2022/11/08 08:23:58;;;;;;;3.92;1.75;;;12.30;99.90;;;;;;5031660;28;20137;-61
2022/11/08 08:26:24;;;;;;;4.43;1.95;;;;;;;;;;5031589;28;20045;-60
2022/11/08 08:28:50;;;;;;;3.95;1.88;;;;;;;;;;5030560;28;20044;-61
2022/11/08 08:31:16;;;;;;;2.80;2.00;;;12.50;99.90;;;;;;5031246;28;20569;-60
2022/11/08 08:33:42;;;;;;;7.93;1.85;;;12.60;99.90;;;;;;5035846;28;20030;-60
2022/11/08 08:36:08;;;;;;;5.70;1.83;;;12.70;99.90;;;;;;5033800;28;20080;-60
2022/11/08 08:38:34;;;;;;;4.50;1.70;;;12.80;99.90;;;;;;5034084;28;20411;-60
2022/11/08 08:41:01;;;;;;;3.67;1.92;;;12.80;99.90;;;;;;5024523;28;20133;-61
2022/11/08 08:43:28;;;;;;;4.35;1.80;;;12.90;99.90;;;;;;5033351;28;20034;-60
2022/11/08 08:45:57;;;;;;;5.30;1.95;;;12.90;99.90;;;;;;5033384;28;20045;-59
2022/11/08 08:48:22;;;;;;;3.45;1.92;;;13.00;99.90;;;;;;5034718;28;20325;-61
2022/11/08 08:50:48;;;;;;;4.45;1.85;;;13.00;99.90;;;;;;5037125;28;20041;-59
2022/11/08 08:53:14;;;;;;;5.38;2.38;;;13.00;99.90;;;;;;5031985;28;20049;-61
2022/11/08 08:55:41;;;;;;;6.10;1.80;;;13.10;99.90;;;;;;5031241;28;20040;-61
2022/11/08 08:58:06;;;;;;;7.07;1.70;;;13.10;99.90;;;;;;5031072;28;20147;-61
2022/11/08 09:00:32;;;;;;;3.95;1.55;;;13.10;99.90;;;;;;5035218;28;20487;-60
2022/11/08 09:03:06;;;;;;;4.78;1.75;;;13.20;99.90;;;;;;5035279;28;20038;-60
2022/11/08 09:05:32;;;;;;;3.20;1.50;;;13.30;99.90;;;;;;5031957;28;20136;-61
2022/11/08 09:07:58;;;;;;;4.20;1.70;;;13.30;99.90;;;;;;5032114;28;20041;-61
2022/11/08 09:10:24;;;;;;;3.38;1.80;;;13.40;99.90;;;;;;5029969;28;20440;-61
2022/11/08 09:12:50;;;;;;;5.15;1.90;;;13.50;99.90;;;;;;5026255;28;20448;-59
2022/11/08 09:15:16;;;;;;;5.63;2.00;;;13.60;99.90;;;;;;5029275;28;20183;-60
2022/11/08 09:17:42;;;;;;;5.32;1.90;;;13.60;99.90;;;;;;5028638;28;20479;-60
2022/11/08 09:20:09;;;;;;;2.55;1.83;;;13.70;99.90;;;;;;5029500;28;20033;-60
2022/11/08 09:22:35;;;;;;;5.77;2.03;;;13.80;99.90;;;;;;5031762;28;20125;-60
2022/11/08 09:25:01;;;;;;;3.22;1.52;;;13.90;99.90;;;;;;5029339;28;20120;-60
2022/11/08 09:27:28;;;;;;;4.53;1.90;;;14.00;99.90;;;;;;4999764;28;20092;-61
2022/11/08 09:29:54;;;;;;;4.78;1.70;;;14.10;99.90;;;;;;5032698;28;20471;-61
2022/11/08 09:32:20;;;;;;;2.35;1.30;;;14.10;99.90;;;;;;5029886;28;20041;-60
2022/11/08 09:34:46;;;;;;;4.00;1.70;;;14.10;99.90;;;;;;5033065;28;20048;-61
2022/11/08 09:37:11;;;;;;;4.20;1.70;;;14.20;99.90;;;;;;5032494;28;20390;-61
2022/11/08 09:39:37;;;;;;;5.18;1.92;;;14.30;99.90;;;;;;5028968;28;20045;-61
2022/11/08 09:42:27;;;;;;;4.28;2.03;;;14.40;99.90;;;;;;5028219;28;20097;-61
2022/11/08 09:45:16;;;;;;;4.22;1.73;;;14.50;99.90;;;;;;5010952;28;20389;-61
2022/11/08 09:47:44;;;;;;;2.33;1.60;;;14.60;99.90;;;;;;5025969;28;20038;-60
2022/11/08 09:50:38;;;;;;;7.35;1.80;;;14.60;99.90;;;;;;5023698;28;20053;-61
2022/11/08 09:53:34;;;;;;;3.53;1.75;;;14.60;99.90;;;;;;5027708;28;20132;-59
2022/11/08 09:56:15;;;;;;;4.57;1.90;;;14.60;99.90;;;;;;5014002;28;20076;-57
2022/11/08 09:58:53;;;;;;;3.60;1.52;;;14.60;99.90;;;;;;5027853;28;20473;-57
2022/11/08 10:01:19;;;;;;;5.82;1.80;;;14.60;99.90;;;;;;5032551;28;20049;-58
2022/11/08 10:03:51;;;;;;;5.75;1.75;;;14.60;99.90;;;;;;5031952;28;20084;-57
2022/11/08 10:06:25;;;;;;;4.68;1.67;;;14.60;99.90;;;;;;5031914;28;20537;-58
2022/11/08 10:09:21;;;;;;;4.72;1.58;;;14.60;99.90;;;;;;5023960;28;20064;-58
2022/11/08 10:12:08;;;;;;;3.97;1.95;;;14.60;99.90;;;;;;5031640;28;20091;-58
2022/11/08 10:15:10;;;;;;;3.63;1.80;;;14.60;99.90;;;;;;5025368;28;20131;-59
2022/11/08 10:18:01;;;;;;;2.67;1.80;;;14.60;99.90;;;;;;5033230;28;20045;-59
2022/11/08 10:20:36;;;;;;;3.28;1.90;;;14.70;99.90;;;;;;5017661;28;20049;-58
2022/11/08 10:23:44;;;;;;;5.07;2.15;;;14.70;99.90;;;;;;5025849;28;20463;-59
2022/11/08 10:26:18;;;;;;;4.22;2.08;;;14.70;99.90;;;;;;5024540;28;20045;-58
2022/11/08 10:28:49;;;;;;;5.32;2.00;;;14.70;99.90;;;;;;5004828;28;20050;-59
2022/11/08 10:31:17;;;;;;;4.03;1.65;;;14.70;99.90;;;;;;5029080;28;20131;-60
2022/11/08 10:33:51;;;;;;;;;;;14.70;99.90;;;;;;5027528;28;20048;-59
2022/11/08 10:36:24;;;;;;;6.22;1.92;;;14.70;99.90;;;;;;5026657;28;19921;-59
2022/11/08 10:39:11;;;;;;;4.68;1.95;;;14.70;99.90;;;;;;5007288;28;20045;-59
2022/11/08 10:41:55;;;;;;;6.95;1.77;;;14.70;99.90;;;;;;5028981;28;20033;-59
2022/11/08 10:44:25;;;;;;;4.47;1.92;;;14.80;99.90;;;;;;5030291;28;20049;-59
2022/11/08 10:46:58;;;;;;;3.70;2.00;;;14.80;99.90;;;;;;5030530;28;20045;-59
2022/11/08 10:49:30;;;;;;;5.10;1.80;;;14.80;99.90;;;;;;5009205;28;20127;-59
2022/11/08 10:52:17;;;;;;;5.28;2.00;;;14.80;99.90;;;;;;5032634;28;20049;-59
2022/11/08 10:54:57;;;;;;;3.17;1.73;;;14.80;99.90;;;;;;5030760;28;20036;-59
2022/11/08 10:57:37;;;;;;;2.83;2.00;;;14.80;99.90;;;;;;5029791;28;20050;-59
2022/11/08 11:00:21;;;;;;;3.33;2.00;;;14.80;99.90;;;;;;5031189;28;20495;-59
2022/11/08 11:03:15;;;;;;;4.15;1.80;;;14.80;99.90;;;;;;5020264;28;20052;-58
2022/11/08 11:05:54;;;;;;;7.05;1.83;;;14.80;99.90;;;;;;5028131;28;20506;-58
2022/11/08 11:08:21;;;;;;;3.70;1.80;;;14.90;99.90;;;;;;5031003;28;21442;-59
2022/11/08 11:10:48;;;;;;;2.45;1.88;;;14.80;99.90;;;;;;5030723;28;20542;-59
2022/11/08 11:13:14;;;;;;;3.95;2.10;;;14.80;99.90;;;;;;5032570;28;20099;-59
2022/11/08 11:15:49;;;;;;;3.28;1.70;;;14.80;99.90;;;;;;5032427;28;20445;-59
2022/11/08 11:18:18;;;;;;;3.47;1.90;;;14.90;99.90;;;;;;5029545;28;20038;-58
2022/11/08 11:20:57;;;;;;;3.10;1.88;;;14.90;99.90;;;;;;5008145;28;20053;-58
2022/11/08 11:23:30;;;;;;;5.38;2.10;;;14.90;99.90;;;;;;5014010;28;20053;-58
2022/11/08 11:25:56;;;;;;;3.85;2.00;;;14.90;99.90;;;;;;5025907;28;20045;-57
2022/11/08 11:28:22;;;;;;;4.57;1.45;;;14.90;99.90;;;;;;5026842;28;20411;-60
2022/11/08 11:31:01;;;;;;;4.30;1.88;;;15.00;99.90;;;;;;5024843;28;20487;-60
2022/11/08 11:33:29;;;;;;;2.90;1.55;;;15.00;99.90;;;;;;5017576;28;20483;-60
2022/11/08 11:36:04;;;;;;;2.72;1.65;;;15.10;99.90;;;;;;5011662;28;20056;-61
2022/11/08 11:38:54;;;;;;;4.10;1.80;;;15.10;99.90;;;;;;5025435;28;20057;-60
2022/11/08 11:42:01;;;;;;;5.18;1.83;;;15.20;99.90;;;;;;5026068;28;20052;-61
2022/11/08 11:44:35;;;;;;;4.20;1.80;;;15.20;99.90;;;;;;4998449;28;20061;-60
2022/11/08 11:47:20;;;;;;;6.53;1.88;;;15.20;99.90;;;;;;5024762;28;20046;-61
2022/11/08 11:49:47;;;;;;;2.83;1.83;;;15.30;99.90;;;;;;5028500;28;20482;-60
2022/11/08 11:52:16;;;;;;;2.65;1.70;;;15.30;99.90;;;;;;5032364;28;20045;-60
2022/11/08 11:54:43;;;;;;;3.55;1.77;;;15.30;99.90;;;;;;5034118;28;20052;-61
2022/11/08 11:57:37;;;;;;;5.60;2.00;;;15.30;99.90;;;;;;5032208;28;20053;-62
2022/11/08 12:00:11;;;;;;;6.93;2.13;;;15.30;99.90;;;;;;5019729;28;20042;-62
2022/11/08 12:02:53;;;;;;;4.90;2.10;;;15.20;99.90;;;;;;5024600;28;20065;-61
2022/11/08 12:05:25;;;;;;;6.63;1.88;;;15.20;99.90;;;;;;5014886;28;20045;-60
2022/11/08 12:08:21;;;;;;;5.13;1.80;;;15.20;99.90;;;;;;5036906;28;20041;-60
2022/11/08 12:11:15;;;;;;;5.70;1.98;;;15.20;99.90;;;;;;5015793;28;20060;-61
2022/11/08 12:14:16;;;;;;;4.68;1.65;;;15.20;99.90;;;;;;5028770;28;20503;-59
2022/11/08 12:16:58;;;;;;;6.47;2.15;;;15.30;99.90;;;;;;5034071;28;20053;-59
2022/11/08 12:19:47;;;;;;;3.53;1.50;;;15.30;99.90;;;;;;5031907;28;20398;-57
2022/11/08 12:22:19;;;;;;;3.38;1.63;;;15.40;99.90;;;;;;5035305;28;20380;-59
2022/11/08 12:25:31;;;;;;;4.10;1.80;;;15.40;99.90;;;;;;5031800;28;20033;-58
2022/11/08 12:28:26;;;;;;;4.40;1.80;;;15.30;99.90;;;;;;5014691;28;20071;-61
2022/11/08 12:31:15;;;;;;;5.07;1.95;;;15.30;99.90;;;;;;5030373;28;20041;-60
2022/11/08 12:34:18;;;;;;;6.65;2.20;;;15.20;99.90;;;;;;5026096;28;20049;-59
2022/11/08 12:37:07;;;;;;;2.75;1.60;;;15.10;99.90;;;;;;5008998;28;20059;-61
2022/11/08 12:39:48;;;;;;;4.85;2.08;;;15.10;99.90;;;;;;5030948;28;20065;-58
2022/11/08 12:42:36;;;;;;;4.43;1.83;;;15.00;99.90;;;;;;5033667;28;20065;-59
2022/11/08 12:47:46;;;;;;;6.43;1.97;;;15.10;99.90;;;;;;5064269;28;20135;-58
2022/11/08 12:50:16;;;;;;;8.35;1.77;;;15.20;99.90;;;;;;5073988;28;20043;-58
2022/11/08 12:53:06;;;;;;;3.72;1.88;;;15.40;99.90;;;;;;5071433;28;20131;-57
2022/11/08 12:55:38;;;;;;;3.95;1.77;;;15.50;99.90;;;;;;5064975;28;20051;-58
2022/11/08 12:58:32;;;;;;;2.72;1.80;;;15.60;99.90;;;;;;5065232;28;20117;-57
2022/11/08 13:01:05;;;;;;;5.55;1.70;;;15.60;99.90;;;;;;5062669;28;20041;-56
2022/11/08 13:03:44;;;;;;;5.15;2.00;;;15.60;99.90;;;;;;5071992;28;20048;-58
2022/11/08 13:06:21;;;;;;;4.93;1.92;;;15.60;99.90;;;;;;5074413;28;20374;-58
2022/11/08 13:09:11;;;;;;;1.80;1.52;;;15.70;99.90;;;;;;5072252;28;20470;-58
2022/11/08 13:11:48;;;;;;;4.53;2.10;;;15.70;99.90;;;;;;5071826;28;20045;-58
2022/11/08 13:14:15;;;;;;;3.58;1.77;;;15.70;99.90;;;;;;5072394;28;20051;-58
2022/11/08 13:17:05;;;;;;;9.60;2.13;;;15.70;99.90;;;;;;5073412;28;20044;-56
2022/11/08 13:19:45;;;;;;;5.90;1.80;;;15.70;99.90;;;;;;5069878;28;20401;-57
2022/11/08 13:22:32;;;;;;;5.07;1.77;;;15.70;99.90;;;;;;5067203;28;20041;-59
2022/11/08 13:24:59;;;;;;;6.60;1.90;;;15.70;99.90;;;;;;5073316;28;20094;-58
2022/11/08 13:27:35;;;;;;;4.45;1.75;;;15.70;99.90;;;;;;5072341;28;20401;-58